Time;durP1;ratioP1;P1;durP2;ratioP2;P2;SDS_P1;SDS_P2;PMS_P1;PMS_P2;Temp;Humidity;BMP_temperature;BMP_pressure;BME280_temperature;BME280_humidity;BME280_pressure;Samples;Min_cycle;Max_cycle;Signal;HPM_P1;HPM_P2
2023/08/17 00:01:50;;;;;;;;;13.75;12.50;;;;;25.10;45.72;101219.22;5042024;28;45534;-66
2023/08/17 00:04:16;;;;;;;;;13.25;12.00;;;;;25.09;45.15;101212.16;5042041;28;45560;-66
2023/08/17 00:06:42;;;;;;;;;12.75;12.75;;;;;25.09;45.32;101220.22;5041705;28;45556;-66
2023/08/17 00:09:07;;;;;;;;;16.25;16.00;;;;;25.08;45.68;101220.28;5041780;28;46089;-65
2023/08/17 00:11:33;;;;;;;;;11.00;11.00;;;;;25.06;45.43;101220.41;5041580;28;45324;-66
2023/08/17 00:13:59;;;;;;;;;10.75;10.75;;;;;25.02;45.99;101210.84;5041936;28;45451;-66
2023/08/17 00:16:24;;;;;;;;;13.50;12.25;;;;;25.03;46.00;101209.88;5041685;28;45258;-65
2023/08/17 00:18:49;;;;;;;;;13.00;11.75;;;;;25.01;45.78;101208.25;5041873;28;45961;-65
2023/08/17 00:21:15;;;;;;;;;10.75;10.75;;;;;25.01;45.89;101217.19;5041683;28;45269;-66
2023/08/17 00:23:40;;;;;;;;;10.50;9.75;;;;;24.99;45.82;101211.03;5041453;28;45970;-65
2023/08/17 00:26:06;;;;;;;;;13.25;13.25;;;;;24.97;45.95;101215.66;5040118;28;45447;-65
2023/08/17 00:28:31;;;;;;;;;7.75;7.00;;;;;24.94;46.06;101202.41;5041596;28;45207;-66
2023/08/17 00:30:57;;;;;;;;;11.75;11.50;;;;;24.94;45.99;101207.78;5041596;28;45218;-66
2023/08/17 00:33:22;;;;;;;;;12.75;12.00;;;;;24.91;46.08;101205.34;5040907;28;45190;-65
2023/08/17 00:35:47;;;;;;;;;11.75;10.00;;;;;24.90;46.40;101207.13;5041387;28;45424;-66
2023/08/17 00:38:13;;;;;;;;;11.00;10.75;;;;;24.89;46.05;101204.56;5041470;28;45188;-66
2023/08/17 00:40:38;;;;;;;;;12.00;10.75;;;;;24.86;45.95;101205.63;5041078;28;47125;-66
2023/08/17 00:43:04;;;;;;;;;11.00;11.00;;;;;24.86;46.20;101202.09;5041195;28;50791;-66
2023/08/17 00:45:31;;;;;;;;;14.25;13.25;;;;;24.83;46.09;101214.75;5041130;28;45400;-66
2023/08/17 00:47:57;;;;;;;;;12.25;10.75;;;;;24.83;46.53;101205.84;5041125;28;46176;-66
2023/08/17 00:50:27;;;;;;;;;9.00;8.75;;;;;24.81;46.73;101210.47;5041180;28;45366;-65
2023/08/17 00:52:53;;;;;;;;;15.50;12.50;;;;;24.79;46.19;101215.06;5041348;28;45339;-66
2023/08/17 00:55:19;;;;;;;;;11.00;11.00;;;;;24.77;46.33;101217.84;5040815;28;45508;-66
2023/08/17 00:57:44;;;;;;;;;10.75;10.25;;;;;24.76;46.45;101213.44;5041314;28;45168;-66
2023/08/17 01:00:13;;;;;;;;;10.00;9.25;;;;;24.75;46.69;101216.25;5040954;28;45340;-66
2023/08/17 01:02:40;;;;;;;;;7.50;6.75;;;;;24.74;46.73;101211.81;5041138;28;45420;-66
2023/08/17 01:05:06;;;;;;;;;12.50;12.00;;;;;24.71;46.42;101218.25;5040855;28;45535;-66
2023/08/17 01:07:31;;;;;;;;;10.00;10.00;;;;;24.71;46.14;101214.72;5040697;28;45298;-66
2023/08/17 01:09:57;;;;;;;;;12.50;12.50;;;;;24.71;46.88;101212.03;5040768;28;45285;-65
2023/08/17 01:12:30;;;;;;;;;13.00;13.00;;;;;24.69;46.67;101216.66;5041160;28;45434;-66
2023/08/17 01:15:15;;;;;;;;;11.75;11.75;;;;;24.67;46.59;101211.38;5040573;28;45277;-66
2023/08/17 01:18:15;;;;;;;;;9.00;8.50;;;;;24.65;46.90;101213.28;5040790;28;45424;-65
2023/08/17 01:20:41;;;;;;;;;13.00;12.50;;;;;24.62;47.04;101206.28;5040846;28;45409;-65
2023/08/17 01:23:07;;;;;;;;;10.75;10.00;;;;;24.60;47.08;101199.28;5040355;28;45341;-65
2023/08/17 01:25:36;;;;;;;;;14.00;13.50;;;;;24.60;47.15;101202.84;5040444;28;45596;-66
2023/08/17 01:28:05;;;;;;;;;11.50;11.00;;;;;24.56;46.88;101197.78;5040645;28;45430;-66
2023/08/17 01:30:37;;;;;;;;;11.50;11.25;;;;;24.56;47.04;101206.69;5022460;28;45317;-66
2023/08/17 01:33:13;;;;;;;;;13.25;12.25;;;;;24.55;47.51;101209.47;5040623;28;45249;-66
2023/08/17 01:35:59;;;;;;;;;11.00;11.00;;;;;24.55;47.06;101213.00;5040418;28;45232;-66
2023/08/17 01:38:27;;;;;;;;;11.25;9.75;;;;;24.52;47.36;101207.84;5039749;28;46278;-65
2023/08/17 01:40:53;;;;;;;;;13.50;13.00;;;;;24.50;47.09;101209.75;5040173;28;45313;-65
2023/08/17 01:43:20;;;;;;;;;13.00;12.00;;;;;24.50;47.22;101212.44;5040663;28;45383;-66
2023/08/17 01:45:46;;;;;;;;;10.25;10.25;;;;;24.49;46.90;101205.38;5038859;28;45466;-65
2023/08/17 01:48:11;;;;;;;;;15.25;12.75;;;;;24.47;47.16;101204.59;5040240;28;46144;-66
2023/08/17 01:50:36;;;;;;;;;11.00;10.50;;;;;24.45;47.06;101198.47;5040217;28;45206;-66
2023/08/17 01:53:02;;;;;;;;;15.25;12.50;;;;;24.44;47.49;101200.31;5022489;28;45246;-65
2023/08/17 01:55:27;;;;;;;;;12.50;12.00;;;;;24.43;47.49;101195.03;5039966;28;45622;-66
2023/08/17 01:57:52;;;;;;;;;12.75;11.25;;;;;24.41;47.82;101196.94;5038527;28;56730;-66
2023/08/17 02:00:18;;;;;;;;;12.25;12.25;;;;;24.39;47.70;101197.06;5040033;28;45492;-65
2023/08/17 02:02:44;;;;;;;;;14.50;14.50;;;;;24.37;47.51;101192.75;5040288;28;45298;-66
2023/08/17 02:05:09;;;;;;;;;16.00;13.75;;;;;24.37;47.38;101200.81;5039937;28;45178;-66
2023/08/17 02:07:34;;;;;;;;;11.50;10.75;;;;;24.34;47.66;101193.81;5039832;28;45253;-65
2023/08/17 02:10:00;;;;;;;;;12.25;11.25;;;;;24.34;47.65;101207.25;5039533;28;53732;-66
2023/08/17 02:12:25;;;;;;;;;13.25;12.00;;;;;24.29;47.95;101198.63;5039937;28;45229;-66
2023/08/17 02:14:50;;;;;;;;;15.75;15.75;;;;;24.28;47.97;101204.94;5039744;28;45550;-66
2023/08/17 02:17:16;;;;;;;;;14.50;14.50;;;;;24.24;47.69;101203.41;5040135;28;45257;-66
2023/08/17 02:19:42;;;;;;;;;15.00;14.00;;;;;24.26;47.65;101212.22;5039850;28;45388;-66
2023/08/17 02:22:08;;;;;;;;;13.75;12.00;;;;;24.24;47.90;101220.41;5039772;28;45325;-65
2023/08/17 02:24:33;;;;;;;;;16.75;13.50;;;;;24.22;47.69;101214.25;5039615;28;45712;-66
2023/08/17 02:26:59;;;;;;;;;16.25;15.50;;;;;24.19;47.68;101219.84;5039422;28;46834;-66
2023/08/17 02:29:25;;;;;;;;;15.75;14.00;;;;;24.20;47.90;101220.69;5039772;28;45251;-66
2023/08/17 02:31:50;;;;;;;;;18.50;14.75;;;;;24.19;47.68;101233.25;5029539;28;45443;-66
2023/08/17 02:34:15;;;;;;;;;18.00;14.00;;;;;24.17;47.83;101237.84;5022502;28;45291;-66
2023/08/17 02:36:41;;;;;;;;;14.00;13.50;;;;;24.12;48.12;101231.91;5019460;28;45989;-66
2023/08/17 02:39:06;;;;;;;;;14.50;14.50;;;;;24.14;47.98;101233.53;5019792;28;45231;-66
2023/08/17 02:41:32;;;;;;;;;14.75;14.25;;;;;24.12;48.00;101232.75;5019770;28;45314;-66
2023/08/17 02:43:57;;;;;;;;;14.50;14.00;;;;;24.11;48.23;101231.06;5019595;28;45393;-66
2023/08/17 02:46:23;;;;;;;;;18.50;17.50;;;;;24.08;48.10;101228.56;5019434;28;46455;-66
2023/08/17 02:48:49;;;;;;;;;12.00;12.00;;;;;24.11;48.17;101232.88;5018624;28;45219;-66
2023/08/17 02:51:15;;;;;;;;;14.00;14.00;;;;;24.10;48.17;101239.19;5019828;28;45184;-66
2023/08/17 02:53:40;;;;;;;;;11.75;11.75;;;;;24.08;48.41;101233.09;5019186;28;45464;-66
2023/08/17 02:56:06;;;;;;;;;13.25;12.75;;;;;24.07;48.06;101231.34;5001684;28;46117;-66
2023/08/17 02:58:31;;;;;;;;;20.00;17.00;;;;;24.05;48.34;101226.09;5022620;28;45361;-66
2023/08/17 03:00:56;;;;;;;;;19.50;16.50;;;;;24.05;48.41;101228.78;5039714;28;45305;-66
2023/08/17 03:03:22;;;;;;;;;20.50;17.50;;;;;24.05;48.36;101222.53;5037092;28;56954;-66
2023/08/17 03:05:47;;;;;;;;;21.25;16.00;;;;;24.04;48.44;101231.53;5039114;28;49458;-66
2023/08/17 03:08:12;;;;;;;;;17.50;15.75;;;;;24.02;48.50;101227.16;5039026;28;45353;-65
2023/08/17 03:10:38;;;;;;;;;17.50;16.25;;;;;23.99;48.16;101221.94;5039382;28;45309;-66
2023/08/17 03:13:03;;;;;;;;;17.25;15.75;;;;;23.98;48.70;101222.91;5038921;28;45328;-66
2023/08/17 03:15:29;;;;;;;;;17.00;17.00;;;;;23.96;48.42;101222.16;5039115;28;45415;-66
2023/08/17 03:17:54;;;;;;;;;16.25;15.00;;;;;23.95;48.68;101223.13;5039097;28;45331;-66
2023/08/17 03:20:19;;;;;;;;;20.75;17.75;;;;;23.94;48.54;101215.16;5039320;28;45473;-66
2023/08/17 03:22:45;;;;;;;;;19.75;16.00;;;;;23.92;48.63;101214.38;5038801;28;45350;-66
2023/08/17 03:25:10;;;;;;;;;18.25;17.25;;;;;23.89;48.49;101209.19;5037526;28;46249;-66
2023/08/17 03:27:36;;;;;;;;;20.75;20.25;;;;;23.88;48.68;101207.47;5038237;28;45380;-66
2023/08/17 03:30:02;;;;;;;;;18.00;16.75;;;;;23.84;48.78;101207.66;5039367;28;45509;-66
2023/08/17 03:32:28;;;;;;;;;18.00;18.00;;;;;23.83;48.75;101213.13;5038837;28;45508;-66
2023/08/17 03:34:53;;;;;;;;;18.25;14.75;;;;;23.81;48.83;101209.66;5038934;28;45472;-65
2023/08/17 03:37:19;;;;;;;;;19.75;19.00;;;;;23.79;48.71;101206.22;5038206;28;52248;-66
2023/08/17 03:39:44;;;;;;;;;17.25;17.00;;;;;23.77;48.91;101209.00;5038981;28;45402;-66
2023/08/17 03:42:09;;;;;;;;;18.25;16.00;;;;;23.76;49.00;101209.97;5038447;28;51469;-66
2023/08/17 03:44:35;;;;;;;;;17.75;16.25;;;;;23.74;48.94;101213.69;5038611;28;45330;-66
2023/08/17 03:47:00;;;;;;;;;17.75;16.25;;;;;23.72;48.82;101211.09;5038542;28;45423;-66
2023/08/17 03:49:25;;;;;;;;;19.00;18.50;;;;;23.70;48.99;101210.34;5039157;28;45348;-66
2023/08/17 03:51:50;;;;;;;;;18.25;18.25;;;;;23.67;49.01;101207.84;5038119;28;53113;-66
2023/08/17 03:54:17;;;;;;;;;18.00;17.50;;;;;23.66;49.08;101209.66;5038876;28;45998;-66
2023/08/17 03:56:42;;;;;;;;;18.00;17.25;;;;;23.63;49.33;101212.53;5038484;28;45456;-66
2023/08/17 03:59:07;;;;;;;;;20.50;19.25;;;;;23.62;48.97;101213.50;5038582;28;46522;-66
2023/08/17 04:01:33;;;;;;;;;21.00;17.50;;;;;23.55;49.02;101204.09;5041103;28;45311;-66
2023/08/17 04:03:58;;;;;;;;;16.25;16.00;;;;;23.58;49.25;101205.75;5041927;28;45311;-66
2023/08/17 04:06:23;;;;;;;;;19.25;18.50;;;;;23.54;49.42;101203.22;5041878;28;45517;-65
2023/08/17 04:08:49;;;;;;;;;19.25;17.25;;;;;23.53;48.94;101206.00;5041979;28;45273;-66
2023/08/17 04:11:14;;;;;;;;;20.75;18.00;;;;;23.52;49.56;101210.53;5041723;28;50704;-66
2023/08/17 04:13:39;;;;;;;;;23.75;17.00;;;;;23.48;49.03;101211.69;5041253;28;56322;-66
2023/08/17 04:16:04;;;;;;;;;18.50;17.50;;;;;23.46;49.28;101212.69;5041750;28;45393;-65
2023/08/17 04:18:30;;;;;;;;;20.25;18.75;;;;;23.44;49.26;101207.44;5042093;28;45417;-66
2023/08/17 04:20:55;;;;;;;;;22.25;20.25;;;;;23.36;49.28;101199.88;5041796;28;45266;-66
2023/08/17 04:23:20;;;;;;;;;19.50;18.50;;;;;23.39;49.48;101204.19;5040315;28;53997;-66
2023/08/17 04:25:46;;;;;;;;;20.25;19.25;;;;;23.36;49.48;101204.38;5041529;28;45191;-66
2023/08/17 04:28:11;;;;;;;;;21.50;18.25;;;;;23.32;49.46;101205.50;5042003;28;45326;-66
2023/08/17 04:30:38;;;;;;;;;18.75;18.00;;;;;23.33;49.40;101215.28;5041572;28;45466;-66
2023/08/17 04:33:03;;;;;;;;;24.25;22.00;;;;;23.28;49.45;101209.34;5041620;28;45340;-66
2023/08/17 04:35:28;;;;;;;;;19.25;17.75;;;;;23.25;49.33;101204.16;5041290;28;45313;-66
2023/08/17 04:37:54;;;;;;;;;23.00;20.25;;;;;23.25;49.63;101213.06;5041720;28;45385;-66
2023/08/17 04:40:19;;;;;;;;;18.00;18.00;;;;;23.21;49.81;101215.06;5040952;28;56366;-65
2023/08/17 04:42:44;;;;;;;;;21.00;19.75;;;;;23.20;49.61;101215.16;5041346;28;50822;-66
2023/08/17 04:45:10;;;;;;;;;19.75;18.75;;;;;23.17;49.81;101213.53;5041232;28;45308;-66
2023/08/17 04:47:35;;;;;;;;;17.25;17.25;;;;;23.10;50.10;101200.56;5041329;28;45676;-66
2023/08/17 04:50:01;;;;;;;;;23.25;21.25;;;;;23.12;49.92;101207.56;5041292;28;45325;-66
2023/08/17 04:52:26;;;;;;;;;21.75;18.25;;;;;23.10;50.05;101205.91;5041262;28;45452;-66
2023/08/17 04:54:51;;;;;;;;;23.50;19.75;;;;;23.08;49.92;101215.84;5040908;28;45462;-65
2023/08/17 04:57:18;;;;;;;;;22.25;19.25;;;;;23.08;50.00;101216.75;5041434;28;45325;-66
2023/08/17 04:59:44;;;;;;;;;22.50;20.00;;;;;23.05;49.98;101212.41;5041038;28;45413;-66
2023/08/17 05:02:09;;;;;;;;;19.75;18.50;;;;;23.04;50.27;101215.16;5041185;28;45381;-65
2023/08/17 05:04:35;;;;;;;;;18.75;18.75;;;;;23.04;50.06;101205.34;5041085;28;45405;-66
2023/08/17 05:07:01;;;;;;;;;19.00;17.75;;;;;23.00;50.34;101203.75;5040946;28;45175;-66
2023/08/17 05:09:27;;;;;;;;;25.25;20.50;;;;;22.97;50.03;101209.31;5039494;28;45303;-66
2023/08/17 05:11:52;;;;;;;;;20.75;20.75;;;;;22.99;50.60;101212.78;5039734;28;45204;-65
2023/08/17 05:14:18;;;;;;;;;19.50;19.00;;;;;22.96;50.20;101207.59;5029551;28;45201;-66
2023/08/17 05:16:43;;;;;;;;;21.00;19.75;;;;;22.97;50.32;101205.78;5041005;28;45208;-65
2023/08/17 05:19:08;;;;;;;;;24.00;21.00;;;;;22.93;50.04;101207.78;5040937;28;45636;-66
2023/08/17 05:21:35;;;;;;;;;24.00;19.25;;;;;22.95;50.48;101207.69;5040523;28;45319;-66
2023/08/17 05:24:00;;;;;;;;;21.25;20.00;;;;;22.93;50.30;101207.78;5040559;28;45457;-66
2023/08/17 05:26:25;;;;;;;;;21.75;21.25;;;;;22.94;50.54;101193.41;5039189;28;45823;-66
2023/08/17 05:28:51;;;;;;;;;23.50;21.75;;;;;22.94;50.66;101195.25;5039168;28;45249;-66
2023/08/17 05:31:16;;;;;;;;;20.50;18.75;;;;;22.93;50.44;101191.72;5040558;28;46035;-66
2023/08/17 05:33:41;;;;;;;;;22.25;21.00;;;;;22.94;50.31;101192.56;5040652;28;45354;-65
2023/08/17 05:36:08;;;;;;;;;20.00;18.00;;;;;22.92;50.54;101183.75;5040619;28;45518;-65
2023/08/17 05:38:33;;;;;;;;;22.75;20.25;;;;;22.91;50.33;101190.06;5040460;28;45423;-65
2023/08/17 05:40:59;;;;;;;;;24.25;22.50;;;;;22.89;50.62;101182.09;5040148;28;45372;-66
2023/08/17 05:43:25;;;;;;;;;31.75;24.75;;;;;22.87;50.74;101184.88;5039777;28;45282;-66
2023/08/17 05:45:51;;;;;;;;;24.50;22.50;;;;;22.87;50.55;101179.53;5038942;28;45199;-66
2023/08/17 05:48:19;;;;;;;;;23.25;21.25;;;;;22.87;50.78;101189.38;5040271;28;45171;-66
2023/08/17 05:50:44;;;;;;;;;22.25;21.50;;;;;22.86;50.26;101185.84;5040232;28;46156;-66
2023/08/17 05:53:09;;;;;;;;;22.50;21.25;;;;;22.84;50.96;101193.13;5038961;28;45360;-66
2023/08/17 05:55:35;;;;;;;;;26.75;24.75;;;;;22.84;50.81;101190.44;5040228;28;45236;-66
2023/08/17 05:58:01;;;;;;;;;26.75;24.50;;;;;22.84;50.96;101194.91;5040298;28;45360;-66
2023/08/17 06:00:26;;;;;;;;;25.25;23.00;;;;;22.84;50.83;101184.19;5040004;28;46348;-65
2023/08/17 06:02:52;;;;;;;;;26.50;23.25;;;;;22.82;50.88;101178.94;5039820;28;47309;-66
2023/08/17 06:05:17;;;;;;;;;21.75;19.00;;;;;22.83;50.99;101182.47;5040137;28;45267;-66
2023/08/17 06:07:43;;;;;;;;;28.75;27.00;;;;;22.81;50.84;101177.19;5039861;28;45312;-66
2023/08/17 06:10:09;;;;;;;;;28.25;24.25;;;;;22.83;51.11;101175.31;5039819;28;45369;-66
2023/08/17 06:12:35;;;;;;;;;23.50;22.50;;;;;22.81;51.04;101173.69;5038246;28;45344;-65
2023/08/17 06:15:03;;;;;;;;;28.25;25.75;;;;;22.84;50.88;101179.72;5039638;28;46518;-65
2023/08/17 06:17:28;;;;;;;;;29.00;26.25;;;;;22.84;51.37;101187.75;5040142;28;45540;-67
2023/08/17 06:19:54;;;;;;;;;25.75;24.75;;;;;22.84;50.91;101182.41;5039542;28;45333;-66
2023/08/17 06:22:19;;;;;;;;;26.50;25.50;;;;;22.83;51.42;101180.66;5039410;28;49629;-66
2023/08/17 06:24:44;;;;;;;;;31.75;29.25;;;;;22.85;51.30;101185.94;5039871;28;45380;-65
2023/08/17 06:27:15;;;;;;;;;30.50;26.75;;;;;22.84;51.38;101181.50;5039741;28;45215;-66
2023/08/17 06:29:40;;;;;;;;;33.00;29.00;;;;;22.87;51.40;101186.72;5039748;28;46184;-66
2023/08/17 06:32:06;;;;;;;;;25.50;25.50;;;;;22.88;51.18;101177.72;5039683;28;45245;-66
2023/08/17 06:34:31;;;;;;;;;32.00;27.00;;;;;22.87;51.47;101184.88;5021659;28;45250;-66
2023/08/17 06:36:59;;;;;;;;;33.75;30.00;;;;;22.89;51.25;101187.47;5039381;28;45161;-66
2023/08/17 06:39:24;;;;;;;;;31.00;29.00;;;;;22.89;51.44;101188.34;5039516;28;46069;-66
2023/08/17 06:41:49;;;;;;;;;29.00;27.75;;;;;22.88;51.24;101191.97;5039487;28;45229;-66
2023/08/17 06:44:15;;;;;;;;;32.25;30.25;;;;;22.92;51.57;101186.41;5039778;28;45300;-65
2023/08/17 06:46:40;;;;;;;;;36.00;31.25;;;;;22.92;51.57;101184.63;5039447;28;45360;-66
2023/08/17 06:49:06;;;;;;;;;27.25;26.75;;;;;22.95;51.53;101183.56;5039435;28;45957;-66
2023/08/17 06:51:31;;;;;;;;;22.50;22.25;;;;;22.96;51.82;101183.47;5039230;28;47105;-66
2023/08/17 06:53:56;;;;;;;;;35.50;31.50;;;;;22.97;51.72;101182.53;5039766;28;45288;-65
2023/08/17 06:56:22;;;;;;;;;31.50;28.75;;;;;22.99;51.80;101182.44;5039240;28;45330;-65
2023/08/17 06:58:48;;;;;;;;;30.25;28.25;;;;;22.99;51.59;101180.63;5038430;28;45563;-66
2023/08/17 07:01:14;;;;;;;;;28.00;27.25;;;;;23.00;51.74;101182.31;5039346;28;45324;-66
2023/08/17 07:03:39;;;;;;;;;36.50;32.25;;;;;23.02;51.69;101180.44;5038026;28;45276;-66
2023/08/17 07:06:05;;;;;;;;;32.50;27.50;;;;;23.06;51.68;101181.13;5039244;28;45472;-66
2023/08/17 07:08:30;;;;;;;;;33.00;27.25;;;;;23.08;51.84;101183.69;5038845;28;47159;-67
2023/08/17 07:10:55;;;;;;;;;33.75;30.25;;;;;23.11;51.79;101180.84;5039141;28;45295;-65
2023/08/17 07:13:21;;;;;;;;;36.75;30.75;;;;;23.12;51.98;101177.19;5039232;28;45264;-66
2023/08/17 07:15:46;;;;;;;;;35.50;30.75;;;;;23.13;51.90;101179.81;5039145;28;45795;-65
2023/08/17 07:18:11;;;;;;;;;29.75;27.50;;;;;23.16;51.81;101173.41;5039005;28;45342;-66
2023/08/17 07:20:37;;;;;;;;;35.25;31.00;;;;;23.17;51.88;101172.47;5039219;28;45174;-66
2023/08/17 07:23:02;;;;;;;;;30.50;27.75;;;;;23.18;51.98;101169.69;5038794;28;45396;-66
2023/08/17 07:25:28;;;;;;;;;33.00;29.50;;;;;23.21;51.89;101169.50;5020938;28;45547;-66
2023/08/17 07:27:53;;;;;;;;;38.75;30.75;;;;;23.25;51.76;101177.38;5038584;28;45464;-66
2023/08/17 07:30:19;;;;;;;;;29.75;28.50;;;;;23.26;52.10;101176.38;5037771;28;45190;-66
2023/08/17 07:32:44;;;;;;;;;34.00;31.25;;;;;23.26;51.84;101179.94;5039001;28;45292;-66
2023/08/17 07:35:10;;;;;;;;;30.75;29.25;;;;;23.30;52.28;101184.16;5038101;28;45403;-66
2023/08/17 07:37:35;;;;;;;;;39.75;35.00;;;;;23.31;52.11;101177.84;5042097;28;46128;-66
2023/08/17 07:40:03;;;;;;;;;34.50;31.25;;;;;23.33;52.09;101178.63;5042276;28;45346;-65
2023/08/17 07:42:28;;;;;;;;;33.00;29.25;;;;;23.39;52.29;101181.88;5042472;28;45297;-66
2023/08/17 07:44:54;;;;;;;;;35.25;32.00;;;;;23.41;52.60;101179.94;5042357;28;45307;-66
2023/08/17 07:47:19;;;;;;;;;33.75;31.75;;;;;23.44;52.16;101175.25;5042038;28;45401;-66
2023/08/17 07:49:44;;;;;;;;;33.00;29.50;;;;;23.46;52.41;101175.16;5042379;28;45250;-66
2023/08/17 07:52:10;;;;;;;;;34.25;29.50;;;;;23.50;52.19;101180.25;5042149;28;45306;-66
2023/08/17 07:54:35;;;;;;;;;34.00;31.25;;;;;23.54;52.28;101180.94;5042242;28;45242;-66
2023/08/17 07:57:03;;;;;;;;;35.75;31.00;;;;;23.57;52.08;101180.75;5041929;28;46535;-66
2023/08/17 07:59:28;;;;;;;;;31.00;30.00;;;;;23.62;52.37;101186.69;5024106;28;45189;-66
2023/08/17 08:01:53;;;;;;;;;34.00;30.75;;;;;23.66;52.37;101190.91;5042085;28;45163;-66
2023/08/17 08:04:19;;;;;;;;;33.00;31.00;;;;;23.69;52.19;101190.69;5041923;28;45227;-66
2023/08/17 08:06:44;;;;;;;;;30.00;28.00;;;;;23.73;52.58;101191.38;5041727;28;45429;-66
2023/08/17 08:09:09;;;;;;;;;34.50;30.00;;;;;23.74;52.48;101186.88;5042072;28;45261;-66
2023/08/17 08:11:34;;;;;;;;;32.50;30.75;;;;;23.84;52.10;101194.22;5041771;28;45253;-66
2023/08/17 08:14:00;;;;;;;;;33.25;30.50;;;;;23.88;52.06;101192.22;5042266;28;45222;-66
2023/08/17 08:16:26;;;;;;;;;27.75;27.75;;;;;23.93;52.08;101198.19;5023895;28;46155;-66
2023/08/17 08:18:51;;;;;;;;;33.75;29.50;;;;;23.97;52.21;101193.50;5041995;28;45416;-66
2023/08/17 08:21:17;;;;;;;;;29.00;26.50;;;;;23.99;52.45;101181.69;5041577;28;45321;-66
2023/08/17 08:23:42;;;;;;;;;32.75;28.50;;;;;24.07;52.05;101191.09;5041693;28;45297;-66
2023/08/17 08:26:07;;;;;;;;;37.75;32.00;;;;;24.11;52.35;101190.81;5041319;28;45400;-66
2023/08/17 08:28:33;;;;;;;;;28.50;24.25;;;;;24.17;52.39;101194.91;5041563;28;47737;-66
2023/08/17 08:31:03;;;;;;;;;34.75;31.75;;;;;24.19;52.40;101203.72;5041744;28;45409;-66
2023/08/17 08:33:28;;;;;;;;;32.25;30.00;;;;;24.27;52.53;101197.84;5041602;28;45240;-66
2023/08/17 08:35:54;;;;;;;;;39.00;33.75;;;;;24.31;52.35;101197.56;5041233;28;45988;-66
2023/08/17 08:38:19;;;;;;;;;32.50;29.50;;;;;24.37;52.19;101200.81;5041275;28;47172;-66
2023/08/17 08:40:47;;;;;;;;;33.50;31.75;;;;;24.40;52.31;101187.16;5041181;28;46993;-66
2023/08/17 08:43:12;;;;;;;;;31.00;29.50;;;;;24.46;52.40;101192.13;5041457;28;45334;-66
2023/08/17 08:45:38;;;;;;;;;36.25;32.25;;;;;24.52;52.44;101194.41;5041199;28;45880;-66
2023/08/17 08:48:05;;;;;;;;;29.75;28.25;;;;;24.57;52.06;101197.66;5040190;28;45478;-66
2023/08/17 08:50:35;;;;;;;;;37.00;32.00;;;;;24.61;52.76;101193.78;5023528;28;45342;-66
2023/08/17 08:53:03;;;;;;;;;33.50;29.25;;;;;24.63;52.55;101186.50;5030768;28;45536;-65
2023/08/17 08:55:38;;;;;;;;;34.00;30.25;;;;;24.70;52.41;101194.19;5056375;28;46137;-66
2023/08/17 08:58:05;;;;;;;;;29.50;26.00;;;;;24.75;52.62;101186.69;5028541;28;45325;-66
2023/08/17 09:00:32;;;;;;;;;29.50;26.25;;;;;24.81;52.29;101183.59;5041121;28;45332;-66
2023/08/17 09:02:59;;;;;;;;;29.00;29.00;;;;;24.83;52.04;101182.50;5041050;28;45526;-66
2023/08/17 09:05:25;;;;;;;;;33.00;28.50;;;;;24.92;52.63;101190.94;5040818;28;46312;-66
2023/08/17 09:07:52;;;;;;;;;33.75;29.75;;;;;24.89;52.08;101169.63;5040822;28;45249;-66
2023/08/17 09:10:17;;;;;;;;;30.25;25.00;;;;;25.02;52.46;101181.28;5041174;28;45265;-66
2023/08/17 09:12:46;;;;;;;;;29.75;26.25;;;;;25.08;51.90;101174.59;5040685;28;45565;-66
2023/08/17 09:15:11;;;;;;;;;33.00;29.75;;;;;25.14;51.74;101179.56;5022517;28;47106;-66
2023/08/17 09:17:37;;;;;;;;;31.25;29.50;;;;;25.18;52.24;101173.00;5040933;28;45451;-66
2023/08/17 09:20:03;;;;;;;;;36.50;30.00;;;;;25.24;52.12;101175.25;5041067;28;45348;-65
2023/08/17 09:22:40;;;;;;;;;35.50;30.00;;;;;25.34;52.36;101169.25;5040494;28;45518;-66
2023/08/17 09:25:06;;;;;;;;;32.00;27.00;;;;;25.38;51.98;101168.09;5040660;28;45399;-66
2023/08/17 09:27:32;;;;;;;;;28.75;24.00;;;;;25.46;52.11;101161.22;5040623;28;45521;-66
2023/08/17 09:30:06;;;;;;;;;36.00;29.75;;;;;25.53;51.85;101163.47;5040985;28;45330;-66
2023/08/17 09:32:32;;;;;;;;;33.75;27.75;;;;;25.61;52.13;101161.94;5040454;28;45431;-66
2023/08/17 09:35:00;;;;;;;;;28.75;26.50;;;;;25.67;52.10;101163.31;5038589;28;47735;-66
2023/08/17 09:37:26;;;;;;;;;29.25;25.50;;;;;25.74;52.30;101161.94;5040135;28;45266;-66
2023/08/17 09:39:52;;;;;;;;;31.75;28.50;;;;;25.84;52.08;101156.75;5040681;28;45273;-66
2023/08/17 09:42:18;;;;;;;;;29.75;26.75;;;;;25.91;52.09;101158.03;5040402;28;45415;-66
2023/08/17 09:44:43;;;;;;;;;26.50;24.50;;;;;26.02;51.51;101157.22;5039122;28;46900;-66
2023/08/17 09:47:10;;;;;;;;;28.50;25.00;;;;;26.11;52.22;101155.72;5040130;28;45286;-66
2023/08/17 09:49:35;;;;;;;;;24.50;24.50;;;;;26.23;51.97;101159.34;5040687;28;45249;-66
2023/08/17 09:52:02;;;;;;;;;21.75;20.00;;;;;26.34;51.92;101163.94;5040180;28;46441;-66
2023/08/17 09:54:30;;;;;;;;;28.00;22.25;;;;;26.46;51.98;101157.63;5028592;28;47230;-66
2023/08/17 09:56:56;;;;;;;;;26.50;24.50;;;;;26.57;51.67;101154.13;5023579;28;45266;-66
2023/08/17 09:59:23;;;;;;;;;23.00;22.00;;;;;26.72;52.12;101149.41;5030501;28;45138;-66
2023/08/17 10:01:50;;;;;;;;;25.75;23.50;;;;;26.89;51.81;101150.84;5022112;28;45353;-66
2023/08/17 10:04:22;;;;;;;;;19.75;17.25;;;;;27.08;51.51;101140.34;5039933;28;46162;-66
2023/08/17 10:06:52;;;;;;;;;20.00;18.50;;;;;27.33;51.77;101145.66;5038446;28;45406;-66
2023/08/17 10:09:23;;;;;;;;;20.25;19.00;;;;;27.57;51.36;101137.47;5040277;28;45373;-65
2023/08/17 10:11:52;;;;;;;;;17.50;17.50;;;;;27.85;51.46;101130.72;5037850;28;45277;-66
2023/08/17 10:14:23;;;;;;;;;23.75;20.50;;;;;28.17;51.39;101129.91;5039863;28;46306;-66
2023/08/17 10:17:02;;;;;;;;;17.25;17.25;;;;;28.52;51.36;101128.81;5022064;28;45285;-66
2023/08/17 10:19:30;;;;;;;;;22.25;19.25;;;;;28.89;51.24;101126.69;5039868;28;45368;-66
2023/08/17 10:22:19;;;;;;;;;20.75;16.75;;;;;29.31;50.99;101132.13;5039556;28;45495;-66
2023/08/17 10:24:46;;;;;;;;;8.25;8.25;;;;;29.67;50.79;101119.88;5039580;28;48416;-66
2023/08/17 10:27:13;;;;;;;;;20.00;18.50;;;;;30.05;50.75;101117.41;5039584;28;45336;-66
2023/08/17 10:29:39;;;;;;;;;26.50;21.00;;;;;30.45;50.54;101126.41;5038344;28;45335;-66
2023/08/17 10:32:06;;;;;;;;;20.75;19.50;;;;;30.83;50.25;101121.13;5039792;28;45341;-66
2023/08/17 10:34:34;;;;;;;;;20.75;19.25;;;;;31.22;50.40;101121.06;5039360;28;45268;-66
2023/08/17 10:37:00;;;;;;;;;17.25;17.25;;;;;31.64;50.02;101114.38;5039486;28;45389;-66
2023/08/17 10:39:29;;;;;;;;;19.75;17.25;;;;;32.08;50.04;101112.66;5039825;28;45159;-66
2023/08/17 10:41:55;;;;;;;;;21.25;19.00;;;;;32.51;49.08;101110.19;5037755;28;45727;-65
2023/08/17 10:44:41;;;;;;;;;19.25;15.75;;;;;32.99;49.29;101115.34;5039540;28;45360;-66
2023/08/17 10:47:23;;;;;;;;;20.00;18.50;;;;;33.45;49.02;101110.50;5023257;28;45291;-66
2023/08/17 10:50:06;;;;;;;;;18.50;17.25;;;;;33.85;48.70;101111.72;5002084;28;45351;-66
2023/08/17 10:52:35;;;;;;;;;20.25;19.00;;;;;34.34;48.37;101110.13;5037962;28;45473;-65
2023/08/17 10:55:09;;;;;;;;;17.50;16.75;;;;;34.76;47.76;101121.88;5039164;28;46037;-66
2023/08/17 10:57:43;;;;;;;;;16.50;16.50;;;;;35.17;47.54;101115.50;5039304;28;45348;-64
2023/08/17 11:00:20;;;;;;;;;16.25;15.25;;;;;35.58;47.20;101118.13;5039417;28;45423;-67
2023/08/17 11:02:52;;;;;;;;;13.25;13.00;;;;;35.92;46.10;101106.00;5039248;28;45408;-64
2023/08/17 11:05:34;;;;;;;;;18.00;15.75;;;;;36.34;45.98;101106.56;5039124;28;46211;-64
2023/08/17 11:07:59;;;;;;;;;16.25;15.00;;;;;36.68;45.28;101113.47;5038968;28;45612;-65